Time,TemperatureF,DewpointF,PressureIn,WindDirection,WindDirectionDegrees,WindSpeedMPH,WindSpeedGustMPH,Humidity,HourlyPrecipIn,Conditions,Clouds,dailyrainin,SolarRadiationWatts/m^2,SoftwareType,DateUTC
2013-08-28 10:00:00,57.0,57.0,-100.00,SSW,194,8.0,16.0,100,0.00,,,0.85,155.000000,,2013-08-28 17:00:00,
2013-08-28 10:24:00,57.0,57.0,-100.00,SSW,194,8.0,16.0,100,0.00,,,0.85,155.000000,,2013-08-28 17:24:00,
2013-08-28 10:35:00,57.0,57.0,-100.00,SSW,194,8.0,16.0,100,0.00,,,0.85,155.000000,,2013-08-28 17:35:00,
2013-08-28 10:44:00,57.0,57.0,-100.00,SSW,194,8.0,16.0,100,0.00,,,0.85,155.000000,,2013-08-28 17:44:00,
2013-08-28 10:52:00,57.0,57.0,-100.00,SSW,194,8.0,16.0,100,0.00,,,0.85,155.000000,,2013-08-28 17:52:00,
2013-08-28 11:00:00,57.0,57.0,-100.00,SSW,204,6.0,16.0,100,0.00,,,0.85,201.000000,,2013-08-28 18:00:00,
2013-08-28 11:22:00,57.0,57.0,-100.00,SSW,204,6.0,16.0,100,0.00,,,0.85,201.000000,,2013-08-28 18:22:00,
2013-08-28 11:32:00,57.0,57.0,-100.00,SSW,204,6.0,16.0,100,0.00,,,0.85,201.000000,,2013-08-28 18:32:00,
2013-08-28 11:42:00,57.0,57.0,-100.00,SSW,204,6.0,16.0,100,0.00,,,0.85,201.000000,,2013-08-28 18:42:00,
2013-08-28 11:53:00,57.0,57.0,-100.00,SSW,204,6.0,16.0,100,0.00,,,0.85,201.000000,,2013-08-28 18:53:00,
2013-08-28 12:00:00,59.0,59.0,-100.00,SSW,205,9.0,15.0,100,0.03,,,0.88,139.000000,,2013-08-28 19:00:00,
2013-08-28 12:22:00,59.0,59.0,-100.00,SSW,205,9.0,15.0,100,0.03,,,0.88,139.000000,,2013-08-28 19:22:00,
2013-08-28 12:32:00,59.0,59.0,-100.00,SSW,205,9.0,15.0,100,0.03,,,0.88,139.000000,,2013-08-28 19:32:00,
2013-08-28 12:42:00,59.0,59.0,-100.00,SSW,205,9.0,15.0,100,0.03,,,0.88,139.000000,,2013-08-28 19:42:00,
2013-08-28 12:52:00,59.0,59.0,-100.00,SSW,205,9.0,15.0,100,0.03,,,0.88,139.000000,,2013-08-28 19:52:00,
2013-08-28 13:00:00,61.0,61.0,-100.00,SSW,209,10.0,21.0,100,0.00,,,0.88,334.000000,,2013-08-28 20:00:00,
2013-08-28 13:23:00,61.0,61.0,-100.00,SSW,209,10.0,21.0,100,0.00,,,0.88,334.000000,,2013-08-28 20:23:00,
2013-08-28 13:32:00,61.0,61.0,-100.00,SSW,209,10.0,21.0,100,0.00,,,0.88,334.000000,,2013-08-28 20:32:00,
2013-08-28 13:43:00,61.0,61.0,-100.00,SSW,209,10.0,21.0,100,0.00,,,0.88,334.000000,,2013-08-28 20:43:00,
2013-08-28 13:52:00,61.0,61.0,-100.00,SSW,209,10.0,21.0,100,0.00,,,0.88,334.000000,,2013-08-28 20:52:00,
2013-08-28 14:00:00,61.0,61.0,-100.00,SSW,205,7.0,19.0,100,0.00,,,0.88,260.000000,,2013-08-28 21:00:00,
2013-08-28 14:22:00,61.0,61.0,-100.00,SSW,205,7.0,19.0,100,0.00,,,0.88,260.000000,,2013-08-28 21:22:00,
2013-08-28 14:35:00,61.0,61.0,-100.00,SSW,205,7.0,19.0,100,0.00,,,0.88,260.000000,,2013-08-28 21:35:00,
2013-08-28 14:44:00,61.0,61.0,-100.00,SSW,205,7.0,19.0,100,0.00,,,0.88,260.000000,,2013-08-28 21:44:00,
2013-08-28 14:57:00,61.0,61.0,-100.00,SSW,205,7.0,19.0,100,0.00,,,0.88,260.000000,,2013-08-28 21:57:00,
2013-08-28 15:00:00,60.0,60.0,-100.00,SSW,207,3.0,14.0,100,0.00,,,0.88,218.000000,,2013-08-28 22:00:00,
2013-08-28 15:25:00,60.0,60.0,-100.00,SSW,207,3.0,14.0,100,0.00,,,0.88,218.000000,,2013-08-28 22:25:00,
2013-08-28 15:34:00,60.0,60.0,-100.00,SSW,207,3.0,14.0,100,0.00,,,0.88,218.000000,,2013-08-28 22:34:00,
2013-08-28 15:43:00,60.0,60.0,-100.00,SSW,207,3.0,14.0,100,0.00,,,0.88,218.000000,,2013-08-28 22:43:00,
2013-08-28 15:54:00,60.0,60.0,-100.00,SSW,207,3.0,14.0,100,0.00,,,0.88,218.000000,,2013-08-28 22:54:00,
2013-08-28 16:00:00,62.0,62.0,-100.00,SSW,210,6.0,14.0,100,0.00,,,0.77,249.000000,,2013-08-28 23:00:00,
2013-08-28 16:22:00,62.0,62.0,-100.00,SSW,210,6.0,14.0,100,0.00,,,0.77,249.000000,,2013-08-28 23:22:00,
2013-08-28 16:33:00,62.0,62.0,-100.00,SSW,210,6.0,14.0,100,0.00,,,0.77,249.000000,,2013-08-28 23:33:00,
2013-08-28 16:42:00,62.0,62.0,-100.00,SSW,210,6.0,14.0,100,0.00,,,0.77,249.000000,,2013-08-28 23:42:00,
2013-08-28 16:53:00,62.0,62.0,-100.00,SSW,210,6.0,14.0,100,0.00,,,0.77,249.000000,,2013-08-28 23:53:00,
2013-08-28 18:00:00,59.0,59.0,-100.00,SE,128,0.0,8.0,100,0.00,,,0.40,109.000000,,2013-08-29 01:00:00,
2013-08-28 18:22:00,59.0,59.0,-100.00,SE,128,0.0,8.0,100,0.00,,,0.40,109.000000,,2013-08-29 01:22:00,
2013-08-28 18:32:00,59.0,59.0,-100.00,SE,128,0.0,8.0,100,0.00,,,0.40,109.000000,,2013-08-29 01:32:00,
2013-08-28 18:42:00,59.0,59.0,-100.00,SE,128,0.0,8.0,100,0.00,,,0.40,109.000000,,2013-08-29 01:42:00,
2013-08-28 18:52:00,59.0,59.0,-100.00,SE,128,0.0,8.0,100,0.00,,,0.40,109.000000,,2013-08-29 01:52:00,
2013-08-28 19:00:00,58.0,58.0,-100.00,SSW,201,4.0,8.0,100,0.00,,,0.39,35.000000,,2013-08-29 02:00:00,
2013-08-28 19:22:00,58.0,58.0,-100.00,SSW,201,4.0,8.0,100,0.00,,,0.39,35.000000,,2013-08-29 02:22:00,
2013-08-28 19:32:00,58.0,58.0,-100.00,SSW,201,4.0,8.0,100,0.00,,,0.39,35.000000,,2013-08-29 02:32:00,
2013-08-28 19:43:00,58.0,58.0,-100.00,SSW,201,4.0,8.0,100,0.00,,,0.39,35.000000,,2013-08-29 02:43:00,
2013-08-28 19:52:00,58.0,58.0,-100.00,SSW,201,4.0,8.0,100,0.00,,,0.39,35.000000,,2013-08-29 02:52:00,
2013-08-28 20:00:00,59.0,59.0,-100.00,SSW,210,7.0,12.0,100,0.00,,,0.28,7.000000,,2013-08-29 03:00:00,
2013-08-28 20:23:00,59.0,59.0,-100.00,SSW,210,7.0,12.0,100,0.00,,,0.28,7.000000,,2013-08-29 03:23:00,
2013-08-28 20:37:00,59.0,59.0,-100.00,SSW,210,7.0,12.0,100,0.00,,,0.28,7.000000,,2013-08-29 03:37:00,
2013-08-28 20:45:00,59.0,59.0,-100.00,SSW,210,7.0,12.0,100,0.00,,,0.28,7.000000,,2013-08-29 03:45:00,
2013-08-28 20:57:00,59.0,59.0,-100.00,SSW,210,7.0,12.0,100,0.00,,,0.28,7.000000,,2013-08-29 03:57:00,
2013-08-28 21:00:00,58.0,58.0,-100.00,SSW,207,9.0,15.0,100,0.01,,,0.25,0.000000,,2013-08-29 04:00:00,
2013-08-28 21:28:00,58.0,58.0,-100.00,SSW,207,9.0,15.0,100,0.01,,,0.25,0.000000,,2013-08-29 04:28:00,
2013-08-28 21:37:00,58.0,58.0,-100.00,SSW,207,9.0,15.0,100,0.01,,,0.25,0.000000,,2013-08-29 04:37:00,
2013-08-28 21:46:00,58.0,58.0,-100.00,SSW,207,9.0,15.0,100,0.01,,,0.25,0.000000,,2013-08-29 04:46:00,
2013-08-28 21:54:00,58.0,58.0,-100.00,SSW,207,9.0,15.0,100,0.01,,,0.25,0.000000,,2013-08-29 04:54:00,
2013-08-28 22:00:00,56.0,56.0,-100.00,SSW,206,10.0,19.0,100,0.05,,,0.27,0.000000,,2013-08-29 05:00:00,
2013-08-28 22:23:00,56.0,56.0,-100.00,SSW,206,10.0,19.0,100,0.05,,,0.27,0.000000,,2013-08-29 05:23:00,
2013-08-28 22:34:00,56.0,56.0,-100.00,SSW,206,10.0,19.0,100,0.05,,,0.27,0.000000,,2013-08-29 05:34:00,
2013-08-28 22:42:00,56.0,56.0,-100.00,SSW,206,10.0,19.0,100,0.05,,,0.27,0.000000,,2013-08-29 05:42:00,
2013-08-28 22:52:00,56.0,56.0,-100.00,SSW,206,10.0,19.0,100,0.05,,,0.27,0.000000,,2013-08-29 05:52:00,
2013-08-28 23:00:00,57.0,57.0,-100.00,SSW,208,9.0,16.0,100,0.02,,,0.28,0.000000,,2013-08-29 06:00:00,
2013-08-28 23:43:00,57.0,57.0,-100.00,SSW,208,9.0,16.0,100,0.02,,,0.28,0.000000,,2013-08-29 06:43:00,
2013-08-28 23:52:00,57.0,57.0,-100.00,SSW,208,9.0,16.0,100,0.02,,,0.28,0.000000,,2013-08-29 06:52:00,